createdAt,value
2019-05-17T00:00:13.403Z,18.67
2019-05-17T00:00:59.661Z,18.75
2019-05-17T00:01:46.910Z,18.50
2019-05-17T00:02:33.326Z,19.37
2019-05-17T00:03:19.115Z,18.40
2019-05-17T00:04:07.251Z,19.70
2019-05-17T00:04:53.216Z,19.52
2019-05-17T00:05:39.123Z,18.07
2019-05-17T00:06:27.378Z,19.62
2019-05-17T00:07:12.882Z,18.52
2019-05-17T00:07:58.507Z,19.25
2019-05-17T00:08:47.128Z,18.07
2019-05-17T00:09:32.295Z,18.57
2019-05-17T00:10:17.922Z,17.87
2019-05-17T00:11:06.523Z,19.93
2019-05-17T00:11:51.949Z,19.27
2019-05-17T00:12:38.109Z,19.07
2019-05-17T00:13:23.867Z,18.42
2019-05-17T00:14:10.259Z,18.53
2019-05-17T00:14:56.652Z,19.77
2019-05-17T00:15:42.539Z,19.45
2019-05-17T00:16:29.024Z,18.77
2019-05-17T00:17:17.338Z,19.92
2019-05-17T00:18:03.371Z,21.35
2019-05-17T00:18:49.500Z,20.20
2019-05-17T00:19:36.931Z,19.42
2019-05-17T00:20:23.148Z,19.40
2019-05-17T00:21:09.601Z,19.00
2019-05-17T00:21:56.659Z,17.65
2019-05-17T00:22:42.728Z,19.07
2019-05-17T00:23:28.373Z,18.90
2019-05-17T00:24:14.094Z,18.73
2019-05-17T00:24:59.793Z,18.65
2019-05-17T00:25:47.024Z,17.98
2019-05-17T00:26:33.307Z,20.82
2019-05-17T00:27:19.063Z,18.40
2019-05-17T00:28:07.317Z,20.45
2019-05-17T00:28:56.339Z,19.80
2019-05-17T00:29:42.270Z,19.97
2019-05-17T00:30:28.020Z,19.77
2019-05-17T00:31:13.944Z,21.17
2019-05-17T00:31:59.746Z,21.17
2019-05-17T00:32:47.583Z,20.25
2019-05-17T00:33:33.371Z,20.92
2019-05-17T00:34:19.159Z,21.00
2019-05-17T00:35:07.250Z,19.00
2019-05-17T00:35:53.441Z,20.97
2019-05-17T00:36:39.228Z,20.27
2019-05-17T00:37:26.468Z,21.00
2019-05-17T00:38:12.794Z,23.07
2019-05-17T00:38:58.480Z,21.33
2019-05-17T00:39:44.199Z,22.55
2019-05-17T00:40:29.904Z,21.70
2019-05-17T00:41:17.598Z,22.17
2019-05-17T00:42:03.965Z,22.02
2019-05-17T00:42:50.131Z,21.73
2019-05-17T00:43:36.895Z,21.93
2019-05-17T00:44:22.942Z,21.45
2019-05-17T00:45:08.999Z,20.75
2019-05-17T00:45:57.290Z,21.65
2019-05-17T00:46:42.582Z,20.57
2019-05-17T00:47:28.192Z,22.33
2019-05-17T00:48:14.444Z,21.62
2019-05-17T00:49:00.131Z,20.72
2019-05-17T00:49:46.451Z,19.90
2019-05-17T00:50:32.517Z,22.10
2019-05-17T00:51:18.183Z,21.20
2019-05-17T00:52:04.475Z,20.60
2019-05-17T00:52:50.183Z,20.33
2019-05-17T00:53:36.316Z,20.52
2019-05-17T00:54:22.300Z,21.40
2019-05-17T00:55:08.164Z,20.23
2019-05-17T00:55:53.791Z,20.25
2019-05-17T00:56:39.951Z,19.57
2019-05-17T00:57:27.408Z,19.62
2019-05-17T00:58:13.366Z,19.83
2019-05-17T00:58:59.015Z,19.03
2019-05-17T00:59:44.659Z,20.62
2019-05-17T01:00:30.352Z,19.45
2019-05-17T01:01:16.540Z,21.40
2019-05-17T01:02:02.788Z,20.70
2019-05-17T01:02:48.922Z,21.85
2019-05-17T01:03:36.301Z,21.20
2019-05-17T01:04:22.311Z,21.35
2019-05-17T01:05:08.386Z,21.68
2019-05-17T01:05:56.379Z,21.00
2019-05-17T01:06:42.494Z,20.20
2019-05-17T01:07:28.716Z,20.97
2019-05-17T01:08:17.703Z,21.02
2019-05-17T01:09:07.595Z,21.40
2019-05-17T01:09:52.774Z,20.37
2019-05-17T01:10:38.415Z,20.25
2019-05-17T01:11:26.952Z,20.95
2019-05-17T01:12:12.733Z,22.45
2019-05-17T01:12:58.417Z,21.12
2019-05-17T01:13:44.159Z,21.97
2019-05-17T01:14:29.797Z,22.37
2019-05-17T01:15:16.937Z,21.87
2019-05-17T01:16:03.004Z,21.17
2019-05-17T01:16:48.673Z,22.32
2019-05-17T01:17:36.413Z,21.12
2019-05-17T01:18:22.207Z,22.13
2019-05-17T01:19:08.001Z,21.37
2019-05-17T01:19:53.831Z,20.92
2019-05-17T01:20:39.633Z,19.57
2019-05-17T01:21:26.319Z,19.87
2019-05-17T01:22:12.572Z,20.15
2019-05-17T01:22:58.239Z,20.37
2019-05-17T01:23:46.682Z,21.37
2019-05-17T01:24:32.080Z,20.40
2019-05-17T01:25:17.697Z,20.55
2019-05-17T01:26:03.597Z,19.23
2019-05-17T01:26:49.280Z,19.63
2019-05-17T01:27:34.937Z,19.77
2019-05-17T01:28:20.652Z,19.40
2019-05-17T01:29:07.608Z,19.02
2019-05-17T01:29:53.710Z,18.73
2019-05-17T01:30:40.162Z,19.00
2019-05-17T01:31:26.569Z,19.37
2019-05-17T01:32:13.041Z,20.05
2019-05-17T01:33:02.060Z,17.90
2019-05-17T01:33:48.567Z,19.67
2019-05-17T01:34:34.600Z,19.05
2019-05-17T01:35:20.905Z,17.83
2019-05-17T01:36:07.293Z,18.75
2019-05-17T01:36:53.752Z,18.15
2019-05-17T01:37:40.290Z,18.12
2019-05-17T01:38:26.924Z,18.73
2019-05-17T01:39:17.880Z,19.37
2019-05-17T01:40:01.431Z,19.15
2019-05-17T01:40:49.590Z,17.95
2019-05-17T01:41:37.264Z,18.20
2019-05-17T01:42:26.472Z,18.10
2019-05-17T01:43:12.985Z,18.07
2019-05-17T01:43:59.541Z,18.23
2019-05-17T01:44:47.245Z,18.42
2019-05-17T01:45:33.603Z,17.90
2019-05-17T01:46:19.492Z,18.37
2019-05-17T01:47:07.375Z,18.23
2019-05-17T01:47:53.486Z,18.00
2019-05-17T01:48:39.742Z,17.60
2019-05-17T01:49:27.078Z,18.10
2019-05-17T01:50:13.839Z,18.80
2019-05-17T01:51:03.645Z,18.07
2019-05-17T01:51:49.766Z,19.45
2019-05-17T01:52:37.019Z,17.85
2019-05-17T01:53:23.051Z,18.25
2019-05-17T01:54:08.702Z,18.12
2019-05-17T01:54:54.402Z,17.82
2019-05-17T01:55:40.573Z,18.17
2019-05-17T01:56:26.807Z,18.77
2019-05-17T01:57:12.972Z,18.42
2019-05-17T01:57:58.713Z,19.30
2019-05-17T01:58:46.839Z,18.35
2019-05-17T01:59:37.231Z,19.02
2019-05-17T02:00:23.254Z,19.85
2019-05-17T02:01:09.039Z,19.23
2019-05-17T02:01:58.920Z,20.00
2019-05-17T02:02:47.099Z,19.82
2019-05-17T02:03:33.473Z,19.60
2019-05-17T02:04:19.480Z,19.52
2019-05-17T02:05:06.539Z,20.65
2019-05-17T02:05:52.612Z,20.27
2019-05-17T02:06:38.803Z,18.82
2019-05-17T02:07:26.633Z,19.98
2019-05-17T02:08:12.191Z,20.25
2019-05-17T02:08:57.869Z,20.65
2019-05-17T02:09:43.977Z,19.52
2019-05-17T02:10:29.754Z,20.02
2019-05-17T02:11:21.581Z,20.73
2019-05-17T02:12:08.242Z,19.45
2019-05-17T02:12:56.900Z,19.65
2019-05-17T02:13:42.186Z,19.50
2019-05-17T02:14:28.172Z,20.25
2019-05-17T02:15:18.022Z,19.70
2019-05-17T02:16:07.421Z,19.32
2019-05-17T02:16:53.544Z,19.87
2019-05-17T02:17:39.515Z,19.95
2019-05-17T02:18:26.642Z,19.90
2019-05-17T02:19:12.676Z,19.77
2019-05-17T02:19:58.563Z,19.50
2019-05-17T02:20:46.392Z,20.57
2019-05-17T02:21:32.408Z,20.12
2019-05-17T02:22:18.465Z,20.52
2019-05-17T02:23:07.006Z,20.30
2019-05-17T02:23:52.358Z,20.45
2019-05-17T02:24:38.980Z,20.57
2019-05-17T02:25:27.238Z,20.70
2019-05-17T02:26:13.399Z,20.20
2019-05-17T02:26:59.727Z,19.37
2019-05-17T02:27:48.753Z,19.57
2019-05-17T02:28:41.450Z,20.87
2019-05-17T02:29:26.077Z,20.82
2019-05-17T02:30:14.307Z,21.82
2019-05-17T02:31:03.456Z,21.23
2019-05-17T02:31:52.458Z,19.92
2019-05-17T02:32:37.809Z,19.95
2019-05-17T02:33:24.453Z,19.67
2019-05-17T02:34:14.133Z,20.17
2019-05-17T02:35:03.099Z,21.35
2019-05-17T02:35:53.663Z,20.43
2019-05-17T02:36:38.580Z,21.20
2019-05-17T02:37:24.336Z,20.53
2019-05-17T02:38:13.247Z,20.55
2019-05-17T02:39:03.354Z,20.92
2019-05-17T02:39:58.334Z,21.45
2019-05-17T02:40:35.973Z,21.70
2019-05-17T02:41:22.714Z,22.52
2019-05-17T02:42:08.844Z,22.22
2019-05-17T02:42:55.031Z,22.00
2019-05-17T02:43:43.436Z,21.45
2019-05-17T02:44:29.152Z,21.45
2019-05-17T02:45:16.148Z,22.42
2019-05-17T02:46:03.704Z,21.95
2019-05-17T02:46:53.527Z,21.90
2019-05-17T02:47:38.815Z,21.77
2019-05-17T02:48:25.250Z,20.90
2019-05-17T02:49:13.810Z,21.55
2019-05-17T02:49:59.383Z,21.52
2019-05-17T02:50:48.231Z,21.75
2019-05-17T02:51:34.105Z,21.68
2019-05-17T02:52:22.802Z,21.77
2019-05-17T02:53:13.263Z,21.68
2019-05-17T02:53:59.475Z,21.57
2019-05-17T02:54:45.412Z,20.50
2019-05-17T02:55:32.678Z,20.20
2019-05-17T02:56:18.633Z,21.87
2019-05-17T02:57:04.544Z,20.35
2019-05-17T02:57:53.592Z,22.45
2019-05-17T02:58:39.555Z,21.65
2019-05-17T02:59:25.844Z,22.00
2019-05-17T03:00:13.571Z,21.68
2019-05-17T03:01:03.292Z,20.72
2019-05-17T03:01:47.520Z,21.23
2019-05-17T03:02:34.152Z,20.43
2019-05-17T03:03:23.456Z,21.17
2019-05-17T03:04:13.020Z,21.57
2019-05-17T03:04:58.964Z,20.45
2019-05-17T03:05:45.103Z,20.82
2019-05-17T03:06:32.819Z,19.98
2019-05-17T03:07:19.063Z,20.52
2019-05-17T03:08:08.055Z,21.05
2019-05-17T03:08:53.724Z,21.87
2019-05-17T03:09:42.911Z,20.62
2019-05-17T03:10:29.052Z,19.85
2019-05-17T03:11:14.830Z,21.27
2019-05-17T03:12:03.284Z,21.15
2019-05-17T03:12:49.184Z,20.35
2019-05-17T03:13:34.907Z,21.05
2019-05-17T03:14:22.993Z,19.85
2019-05-17T03:15:08.343Z,20.55
2019-05-17T03:15:54.175Z,21.07
2019-05-17T03:16:42.734Z,20.15
2019-05-17T03:17:27.634Z,21.25
2019-05-17T03:18:13.755Z,20.40
2019-05-17T03:18:59.477Z,20.55
2019-05-17T03:19:45.672Z,20.50
2019-05-17T03:20:32.742Z,18.20
2019-05-17T03:21:18.997Z,19.82
2019-05-17T03:22:08.076Z,20.27
2019-05-17T03:22:54.382Z,21.23
2019-05-17T03:23:43.301Z,20.92
2019-05-17T03:24:28.236Z,21.20
2019-05-17T03:25:14.691Z,21.48
2019-05-17T03:26:03.553Z,20.55
2019-05-17T03:26:48.513Z,21.57
2019-05-17T03:27:34.252Z,20.40
2019-05-17T03:28:23.572Z,20.85
2019-05-17T03:29:08.098Z,20.40
2019-05-17T03:29:54.206Z,21.02
2019-05-17T03:30:46.028Z,19.92
2019-05-17T03:31:34.426Z,21.50
2019-05-17T03:32:17.598Z,21.87
2019-05-17T03:33:07.524Z,19.57
2019-05-17T03:33:55.688Z,21.87
2019-05-17T03:34:44.561Z,21.35
2019-05-17T03:36:06.300Z,21.27
2019-05-17T03:36:56.310Z,19.80
2019-05-17T03:37:39.804Z,20.75
2019-05-17T03:38:27.549Z,20.35
2019-05-17T03:39:14.124Z,20.85
2019-05-17T03:40:04.550Z,20.97
2019-05-17T03:41:17.057Z,19.98
2019-05-17T03:41:36.841Z,20.43
2019-05-17T03:42:16.617Z,21.45
2019-05-17T03:43:02.994Z,20.27
2019-05-17T03:43:49.504Z,20.10
2019-05-17T03:44:36.245Z,21.93
2019-05-17T03:45:22.964Z,20.30
2019-05-17T03:46:08.839Z,21.82
2019-05-17T03:46:54.937Z,21.37
2019-05-17T03:47:43.913Z,21.48
2019-05-17T03:48:28.812Z,21.17
2019-05-17T03:52:03.141Z,20.17
2019-05-17T03:52:49.379Z,19.12
2019-05-17T03:53:38.491Z,19.80
2019-05-17T03:54:24.669Z,19.95
2019-05-17T03:55:13.204Z,20.27
2019-05-17T03:55:58.298Z,19.65
2019-05-17T03:56:44.671Z,21.07
2019-05-17T03:57:32.332Z,19.37
2019-05-17T03:58:18.281Z,19.17
2019-05-17T03:59:04.429Z,19.02
2019-05-17T04:02:34.025Z,18.67
2019-05-17T04:03:22.879Z,18.95
2019-05-17T04:04:07.902Z,18.37
2019-05-17T04:04:54.518Z,19.20
2019-05-17T04:05:42.985Z,18.77
2019-05-17T04:06:27.991Z,19.45
2019-05-17T04:07:14.135Z,20.52
2019-05-17T04:10:18.058Z,18.75
2019-05-17T04:11:20.344Z,18.37
2019-05-17T04:11:53.545Z,19.75
2019-05-17T04:12:39.608Z,19.62
2019-05-17T04:13:25.252Z,19.75
2019-05-17T04:14:14.016Z,18.77
2019-05-17T04:14:58.564Z,18.27
2019-05-17T04:15:44.540Z,19.60
2019-05-17T04:18:19.625Z,17.30
2019-05-17T04:19:05.581Z,18.92
2019-05-17T04:19:53.287Z,18.48
2019-05-17T04:20:39.519Z,18.92
2019-05-17T04:21:25.297Z,19.87
2019-05-17T04:22:13.816Z,19.12
2019-05-17T04:23:03.425Z,18.52
2019-05-17T04:23:48.159Z,19.00
2019-05-17T04:24:34.116Z,18.02
2019-05-17T04:25:23.215Z,18.80
2019-05-17T04:26:07.962Z,17.80
2019-05-17T04:26:54.651Z,17.85
2019-05-17T04:27:43.676Z,18.92
2019-05-17T04:28:33.488Z,19.20
2019-05-17T04:29:22.671Z,18.45
2019-05-17T04:30:12.543Z,17.55
2019-05-17T04:31:02.831Z,17.70
2019-05-17T04:31:49.099Z,17.65
2019-05-17T04:32:34.909Z,18.62
2019-05-17T04:33:23.283Z,18.37
2019-05-17T04:34:09.118Z,17.40
2019-05-17T04:34:57.891Z,16.97
2019-05-17T04:35:44.210Z,18.02
2019-05-17T04:36:32.192Z,17.05
2019-05-17T04:37:17.922Z,17.37
2019-05-17T04:38:04.598Z,17.77
2019-05-17T04:38:53.943Z,18.27
2019-05-17T04:39:42.944Z,17.30
2019-05-17T04:40:27.940Z,17.07
2019-05-17T04:41:13.903Z,16.87
2019-05-17T04:42:03.898Z,16.93
2019-05-17T04:42:52.678Z,16.77
2019-05-17T04:43:37.899Z,17.82
2019-05-17T04:44:23.536Z,16.73
2019-05-17T04:45:12.952Z,17.12
2019-05-17T04:46:02.977Z,17.77
2019-05-17T04:46:49.236Z,17.30
2019-05-17T04:47:34.858Z,16.93
2019-05-17T04:48:23.309Z,18.67
2019-05-17T04:49:08.270Z,17.70
2019-05-17T04:49:54.453Z,17.60
2019-05-17T04:50:42.799Z,17.07
2019-05-17T04:51:29.103Z,18.12
2019-05-17T04:52:15.876Z,17.60
2019-05-17T04:53:02.907Z,16.80
2019-05-17T04:53:52.694Z,16.77
2019-05-17T04:54:37.212Z,16.45
2019-05-17T04:55:23.391Z,17.27
2019-05-17T04:56:09.177Z,16.77
2019-05-17T04:56:54.805Z,16.97
2019-05-17T04:57:43.774Z,17.57
2019-05-17T04:58:29.485Z,17.15
2019-05-17T04:59:16.859Z,18.00
2019-05-17T05:00:04.653Z,17.35
2019-05-17T05:00:53.345Z,17.27
2019-05-17T05:01:38.433Z,17.00
2019-05-17T05:02:26.285Z,18.60
2019-05-17T05:03:16.397Z,17.48
2019-05-17T05:04:03.833Z,17.33
2019-05-17T05:05:17.685Z,17.30
2019-05-17T05:06:03.859Z,15.53
2019-05-17T05:06:52.442Z,17.32
2019-05-17T05:07:42.850Z,17.90
2019-05-17T05:08:28.701Z,17.82
2019-05-17T05:09:14.876Z,17.85
2019-05-17T05:10:03.078Z,16.93
2019-05-17T05:10:48.350Z,17.17
2019-05-17T05:11:34.000Z,17.25
2019-05-17T05:12:22.635Z,17.17
2019-05-17T05:13:08.032Z,17.40
2019-05-17T05:13:54.301Z,18.00
2019-05-17T05:14:42.902Z,17.60
2019-05-17T05:15:44.075Z,17.85
2019-05-17T05:16:31.865Z,16.67
2019-05-17T05:17:17.376Z,16.87
2019-05-17T05:18:03.586Z,18.12
2019-05-17T05:18:52.057Z,18.17
2019-05-17T05:19:37.644Z,18.07
2019-05-17T05:20:23.875Z,18.05
2019-05-17T05:21:12.227Z,18.65
2019-05-17T05:21:58.065Z,18.65
2019-05-17T05:22:44.276Z,18.80
2019-05-17T05:23:31.878Z,18.70
2019-05-17T05:24:18.260Z,19.15
2019-05-17T05:25:06.551Z,18.40
2019-05-17T05:25:52.975Z,17.67
2019-05-17T05:26:38.964Z,18.82
2019-05-17T05:27:25.921Z,17.90
2019-05-17T05:28:12.264Z,17.95
2019-05-17T05:28:58.838Z,17.40
2019-05-17T05:29:44.891Z,17.52
2019-05-17T05:30:32.029Z,18.07
2019-05-17T05:31:18.202Z,17.25
2019-05-17T05:32:04.759Z,18.03
2019-05-17T05:32:52.463Z,17.37
2019-05-17T05:33:38.579Z,17.07
2019-05-17T05:34:24.353Z,16.80
2019-05-17T05:35:12.344Z,16.70
2019-05-17T05:35:58.476Z,16.95
2019-05-17T05:36:44.360Z,16.47
2019-05-17T05:37:32.984Z,16.63
2019-05-17T05:38:18.091Z,16.93
2019-05-17T05:39:05.765Z,17.40
2019-05-17T05:39:54.414Z,17.52
2019-05-17T05:40:41.321Z,16.42
2019-05-17T05:41:27.653Z,17.20
2019-05-17T05:42:14.114Z,17.45
2019-05-17T05:43:02.156Z,16.90
2019-05-17T05:43:48.035Z,17.17
2019-05-17T05:44:33.943Z,15.80
2019-05-17T05:45:19.824Z,16.17
2019-05-17T05:46:05.703Z,14.87
2019-05-17T05:46:51.558Z,14.97
2019-05-17T05:47:37.763Z,16.60
2019-05-17T05:48:24.080Z,15.90
2019-05-17T05:49:12.198Z,14.77
2019-05-17T05:49:57.702Z,15.15
2019-05-17T05:50:43.572Z,15.50
2019-05-17T05:51:31.846Z,15.50
2019-05-17T05:52:17.670Z,15.00
2019-05-17T05:53:03.871Z,14.50
2019-05-17T05:53:52.198Z,15.08
2019-05-17T05:54:38.794Z,14.87
2019-05-17T05:55:25.251Z,15.50
2019-05-17T05:56:13.386Z,14.90
2019-05-17T05:57:02.107Z,15.95
2019-05-17T05:57:47.440Z,16.07
2019-05-17T05:58:33.623Z,15.53
2019-05-17T05:59:19.609Z,15.75
2019-05-17T06:00:05.475Z,15.37
2019-05-17T06:00:53.199Z,14.30
2019-05-17T06:01:42.092Z,14.87
2019-05-17T06:02:28.297Z,14.40
2019-05-17T06:03:14.027Z,14.10
2019-05-17T06:04:02.528Z,14.30
2019-05-17T06:04:48.236Z,14.97
2019-05-17T06:05:34.187Z,14.07
2019-05-17T06:06:21.559Z,14.90
2019-05-17T06:07:08.004Z,14.87
2019-05-17T06:07:54.306Z,14.07
2019-05-17T06:08:43.555Z,13.47
2019-05-17T06:09:31.688Z,14.57
2019-05-17T06:10:17.198Z,13.53
2019-05-17T06:11:02.990Z,14.50
2019-05-17T06:11:48.807Z,12.63
2019-05-17T06:12:34.734Z,13.77
2019-05-17T06:13:21.867Z,13.53
2019-05-17T06:14:08.332Z,13.97
2019-05-17T06:14:54.606Z,12.37
2019-05-17T06:15:42.662Z,13.83
2019-05-17T06:16:28.390Z,13.13
2019-05-17T06:17:17.251Z,14.50
2019-05-17T06:18:03.582Z,14.70
2019-05-17T06:18:51.564Z,13.53
2019-05-17T06:19:37.264Z,13.93
2019-05-17T06:20:23.618Z,13.93
2019-05-17T06:21:12.049Z,13.73
2019-05-17T06:21:57.307Z,13.50
2019-05-17T06:22:43.113Z,13.73
2019-05-17T06:23:31.480Z,12.43
2019-05-17T06:24:17.077Z,13.15
2019-05-17T06:25:04.231Z,12.73
2019-05-17T06:25:52.220Z,12.53
2019-05-17T06:26:38.613Z,13.07
2019-05-17T06:27:25.013Z,12.87
2019-05-17T06:28:11.599Z,12.47
2019-05-17T06:28:58.905Z,12.43
2019-05-17T06:29:45.054Z,13.57
2019-05-17T06:30:32.411Z,13.87
2019-05-17T06:31:18.515Z,13.43
2019-05-17T06:32:04.777Z,12.93
2019-05-17T06:32:51.788Z,11.97
2019-05-17T06:33:38.171Z,12.93
2019-05-17T06:34:24.438Z,12.93
2019-05-17T06:35:12.583Z,13.43
2019-05-17T06:35:58.870Z,13.00
2019-05-17T06:36:44.991Z,12.27
2019-05-17T06:37:31.776Z,12.90
2019-05-17T06:38:17.867Z,13.30
2019-05-17T06:39:06.166Z,12.07
2019-05-17T06:39:52.658Z,12.43
2019-05-17T06:40:38.821Z,12.57
2019-05-17T06:41:25.107Z,13.10
2019-05-17T06:42:12.094Z,12.60
2019-05-17T06:42:58.373Z,11.87
2019-05-17T06:43:44.547Z,11.93
2019-05-17T06:44:32.484Z,12.10
2019-05-17T06:45:18.918Z,13.03
2019-05-17T06:46:05.067Z,12.50
2019-05-17T06:46:51.901Z,13.20
2019-05-17T06:47:38.271Z,12.43
2019-05-17T06:48:23.948Z,12.20
2019-05-17T06:49:11.794Z,12.90
2019-05-17T06:49:57.898Z,13.07
2019-05-17T06:50:43.634Z,12.67
2019-05-17T06:51:31.643Z,13.00
2019-05-17T06:52:17.435Z,12.57
2019-05-17T06:53:03.658Z,11.47
2019-05-17T06:53:52.226Z,10.57
2019-05-17T06:54:37.539Z,11.87
2019-05-17T06:55:24.316Z,12.40
2019-05-17T06:56:10.202Z,11.03
2019-05-17T06:56:55.892Z,12.93
2019-05-17T06:57:43.211Z,13.13
2019-05-17T06:58:31.407Z,11.13
2019-05-17T06:59:16.907Z,11.50
2019-05-17T07:00:11.114Z,12.67
2019-05-17T07:00:51.377Z,11.63
2019-05-17T07:01:37.968Z,12.33
2019-05-17T07:02:23.866Z,11.67
2019-05-17T07:03:09.921Z,12.03
2019-05-17T07:03:55.888Z,11.87
2019-05-17T07:04:41.606Z,11.47
2019-05-17T07:05:30.746Z,11.63
2019-05-17T07:06:18.393Z,11.40
2019-05-17T07:07:22.179Z,11.97
2019-05-17T07:08:10.885Z,11.63
2019-05-17T07:08:57.160Z,10.83
2019-05-17T07:09:43.584Z,11.10
2019-05-17T07:10:30.192Z,11.50
2019-05-17T07:12:03.314Z,11.70
2019-05-17T07:12:57.772Z,10.87
2019-05-17T07:13:39.427Z,10.87
2019-05-17T07:14:25.045Z,10.50
2019-05-17T07:15:11.289Z,10.73
2019-05-17T07:15:56.957Z,11.00
2019-05-17T07:16:42.754Z,10.20
2019-05-17T07:17:30.393Z,10.97
2019-05-17T07:18:16.179Z,10.10
2019-05-17T07:19:02.039Z,10.27
2019-05-17T07:19:50.578Z,11.23
2019-05-17T07:20:35.678Z,9.77
2019-05-17T07:21:21.599Z,10.27
2019-05-17T07:22:09.461Z,10.80
2019-05-17T07:22:56.218Z,10.50
2019-05-17T07:23:42.193Z,10.20
2019-05-17T07:24:29.921Z,9.40
2019-05-17T07:25:15.883Z,10.23
2019-05-17T07:26:01.946Z,10.93
2019-05-17T07:26:49.812Z,10.43
2019-05-17T07:27:41.589Z,9.83
2019-05-17T07:28:24.535Z,9.67
2019-05-17T07:29:11.064Z,9.33
2019-05-17T07:29:59.241Z,9.90
2019-05-17T07:30:45.483Z,9.80
2019-05-17T07:31:31.289Z,9.37
2019-05-17T07:32:19.290Z,10.60
2019-05-17T07:33:05.177Z,10.47
2019-05-17T07:33:54.590Z,9.17
2019-05-17T07:34:43.637Z,10.27
2019-05-17T07:35:30.049Z,9.43
2019-05-17T07:36:16.456Z,10.57
2019-05-17T07:37:02.444Z,9.97
2019-05-17T07:37:50.087Z,9.37
2019-05-17T07:38:36.164Z,10.07
2019-05-17T07:39:22.643Z,9.57
2019-05-17T07:40:10.722Z,10.07
2019-05-17T07:40:59.378Z,8.73
2019-05-17T07:41:45.152Z,9.60
2019-05-17T07:42:31.579Z,8.77
2019-05-17T07:43:17.525Z,8.60
2019-05-17T07:44:03.692Z,9.53
2019-05-17T07:44:50.001Z,8.10
2019-05-17T07:45:36.529Z,8.00
2019-05-17T07:46:23.146Z,8.57
2019-05-17T07:47:09.810Z,8.23
2019-05-17T07:47:55.811Z,8.80
2019-05-17T07:48:42.102Z,8.70
2019-05-17T07:49:29.412Z,8.80
2019-05-17T07:50:15.605Z,8.10
2019-05-17T07:51:01.863Z,8.07
2019-05-17T07:51:50.168Z,8.50
2019-05-17T07:52:35.470Z,8.03
2019-05-17T07:53:21.231Z,8.63
2019-05-17T07:54:06.964Z,8.73
2019-05-17T07:54:53.206Z,9.37
2019-05-17T07:55:39.834Z,9.10
2019-05-17T07:56:26.095Z,8.33
2019-05-17T07:57:12.295Z,8.37
2019-05-17T07:58:00.109Z,8.40
2019-05-17T07:58:45.705Z,8.77
2019-05-17T07:59:31.556Z,7.57
2019-05-17T08:00:20.116Z,8.90
2019-05-17T08:01:05.493Z,8.60
2019-05-17T08:01:51.237Z,8.73
2019-05-17T08:02:39.830Z,9.30
2019-05-17T08:03:25.211Z,8.93
2019-05-17T08:04:11.199Z,9.20
2019-05-17T08:04:57.240Z,8.53
2019-05-17T08:05:43.087Z,8.47
2019-05-17T08:06:30.640Z,8.47
2019-05-17T08:07:16.822Z,8.20
2019-05-17T08:08:02.541Z,7.90
2019-05-17T08:08:50.148Z,7.73
2019-05-17T08:09:35.844Z,8.00
2019-05-17T08:10:21.693Z,8.07
2019-05-17T08:11:07.470Z,7.80
2019-05-17T08:11:53.400Z,7.93
2019-05-17T08:12:40.734Z,7.93
2019-05-17T08:13:31.271Z,8.37
2019-05-17T08:14:29.399Z,8.23
2019-05-17T08:15:04.907Z,8.50
2019-05-17T08:15:50.804Z,8.80
2019-05-17T08:16:36.603Z,9.00
2019-05-17T08:17:22.755Z,7.70
2019-05-17T08:18:10.871Z,8.70
2019-05-17T08:18:56.228Z,8.20
2019-05-17T08:19:41.972Z,8.70
2019-05-17T08:20:29.838Z,8.50
2019-05-17T08:21:15.719Z,8.23
2019-05-17T08:22:02.034Z,8.10
2019-05-17T08:22:50.181Z,8.17
2019-05-17T08:23:36.515Z,8.47
2019-05-17T08:24:22.865Z,8.13
2019-05-17T08:25:10.134Z,8.53
2019-05-17T08:25:56.734Z,7.97
2019-05-17T08:26:42.503Z,8.80
2019-05-17T08:27:29.692Z,8.57
2019-05-17T08:28:16.293Z,8.30
2019-05-17T08:29:02.555Z,8.43
2019-05-17T08:29:49.882Z,8.30
2019-05-17T08:30:36.239Z,8.13
2019-05-17T08:31:22.677Z,7.53
2019-05-17T08:32:09.643Z,8.23
2019-05-17T08:32:56.029Z,8.00
2019-05-17T08:33:41.801Z,7.53
2019-05-17T08:34:29.281Z,8.67
2019-05-17T08:35:15.323Z,7.67
2019-05-17T08:36:01.262Z,7.97
2019-05-17T08:36:47.027Z,8.00
2019-05-17T08:37:33.155Z,8.20
2019-05-17T08:38:19.805Z,8.17
2019-05-17T08:39:06.390Z,7.67
2019-05-17T08:39:52.011Z,7.93
2019-05-17T08:40:40.074Z,7.20
2019-05-17T08:41:25.904Z,8.00
2019-05-17T08:42:12.078Z,7.47
2019-05-17T08:43:00.009Z,7.73
2019-05-17T08:43:47.146Z,8.10
2019-05-17T08:44:33.263Z,7.50
2019-05-17T08:45:20.673Z,7.90
2019-05-17T08:46:06.801Z,8.13
2019-05-17T08:46:52.436Z,7.87
2019-05-17T08:47:39.670Z,8.20
2019-05-17T08:48:26.007Z,7.47
2019-05-17T08:49:11.669Z,7.40
2019-05-17T08:50:00.198Z,8.27
2019-05-17T08:50:45.414Z,7.60
2019-05-17T08:51:31.161Z,7.70
2019-05-17T08:52:17.338Z,7.30
2019-05-17T08:53:06.016Z,7.37
2019-05-17T08:53:52.204Z,7.50
2019-05-17T08:54:42.553Z,7.67
2019-05-17T08:55:25.648Z,6.77
2019-05-17T08:56:11.539Z,7.13
2019-05-17T08:56:57.377Z,6.77
2019-05-17T08:57:43.619Z,6.37
2019-05-17T08:58:29.818Z,7.03
2019-05-17T08:59:15.640Z,6.80
2019-05-17T09:00:01.486Z,6.10
2019-05-17T09:00:50.332Z,6.87
2019-05-17T09:01:38.444Z,6.93
2019-05-17T09:02:24.398Z,6.23
2019-05-17T09:03:10.965Z,6.63
2019-05-17T09:03:56.912Z,5.37
2019-05-17T09:04:42.781Z,6.13
2019-05-17T09:05:30.254Z,5.93
2019-05-17T09:06:16.395Z,5.63
2019-05-17T09:07:03.227Z,5.40
2019-05-17T09:07:49.540Z,5.57
2019-05-17T09:08:35.874Z,5.83
2019-05-17T09:09:22.178Z,5.40
2019-05-17T09:10:09.981Z,5.40
2019-05-17T09:10:55.858Z,5.67
2019-05-17T09:11:41.646Z,5.73
2019-05-17T09:12:29.930Z,5.97
2019-05-17T09:13:15.547Z,5.43
2019-05-17T09:14:02.424Z,5.77
2019-05-17T09:14:51.663Z,6.03
2019-05-17T09:15:39.957Z,5.57
2019-05-17T09:16:26.280Z,5.47
2019-05-17T09:17:12.563Z,5.30
2019-05-17T09:18:00.263Z,5.17
2019-05-17T09:18:46.727Z,5.47
2019-05-17T09:19:33.094Z,5.13
2019-05-17T09:20:20.455Z,5.27
2019-05-17T09:21:06.608Z,4.70
2019-05-17T09:21:53.399Z,5.10
2019-05-17T09:22:40.213Z,5.00
2019-05-17T09:23:26.939Z,5.42
2019-05-17T09:24:13.087Z,4.73
2019-05-17T09:24:59.643Z,4.50
2019-05-17T09:25:46.066Z,4.63
2019-05-17T09:26:32.413Z,4.73
2019-05-17T09:27:19.879Z,4.53
2019-05-17T09:28:06.047Z,4.87
2019-05-17T09:28:52.254Z,4.83
2019-05-17T09:29:40.200Z,4.73
2019-05-17T09:30:27.388Z,4.80
2019-05-17T09:31:13.581Z,4.30
2019-05-17T09:31:59.957Z,4.63
2019-05-17T09:32:45.927Z,4.30
2019-05-17T09:33:31.709Z,4.30
2019-05-17T09:34:20.173Z,4.37
2019-05-17T09:35:06.028Z,3.97
2019-05-17T09:35:51.958Z,3.90
2019-05-17T09:36:37.703Z,4.27
2019-05-17T09:37:23.432Z,3.90
2019-05-17T09:38:12.095Z,3.43
2019-05-17T09:38:59.922Z,4.07
2019-05-17T09:39:45.642Z,4.20
2019-05-17T09:40:31.627Z,4.07
2019-05-17T09:41:19.864Z,3.80
2019-05-17T09:42:05.552Z,3.90
2019-05-17T09:42:51.383Z,3.80
2019-05-17T09:43:40.744Z,3.87
2019-05-17T09:44:26.950Z,4.03
2019-05-17T09:45:13.552Z,3.83
2019-05-17T09:46:01.656Z,4.10
2019-05-17T09:46:50.257Z,3.53
2019-05-17T09:47:39.657Z,4.30
2019-05-17T09:48:30.582Z,3.43
2019-05-17T09:49:19.172Z,3.80
2019-05-17T09:50:05.481Z,4.47
2019-05-17T09:50:51.422Z,4.30
2019-05-17T09:51:39.489Z,4.60
2019-05-17T09:52:29.304Z,4.67
2019-05-17T09:53:15.555Z,4.10
2019-05-17T09:54:01.935Z,3.70
2019-05-17T09:54:50.200Z,4.10
2019-05-17T09:55:36.267Z,4.17
2019-05-17T09:56:22.598Z,3.97
2019-05-17T09:57:09.926Z,3.87
2019-05-17T09:58:01.943Z,3.90
2019-05-17T09:58:49.559Z,3.60
2019-05-17T09:59:35.728Z,3.70
2019-05-17T10:00:21.666Z,3.87
2019-05-17T10:01:09.470Z,4.10
2019-05-17T10:02:00.109Z,4.40
2019-05-17T10:02:46.444Z,4.10
2019-05-17T10:03:32.751Z,4.20
2019-05-17T10:04:19.873Z,4.30
2019-05-17T10:05:06.175Z,3.80
2019-05-17T10:05:51.948Z,3.60
2019-05-17T10:06:39.956Z,4.03
2019-05-17T10:07:26.979Z,3.60
2019-05-17T10:08:12.968Z,3.50
2019-05-17T10:09:00.204Z,3.70
2019-05-17T10:09:46.760Z,4.10
2019-05-17T10:10:32.904Z,3.50
2019-05-17T10:11:20.258Z,3.20
2019-05-17T10:12:06.769Z,3.83
2019-05-17T10:12:52.755Z,3.63
2019-05-17T10:13:38.488Z,3.23
2019-05-17T10:14:28.137Z,3.47
2019-05-17T10:15:13.107Z,3.60
2019-05-17T10:16:00.433Z,3.50
2019-05-17T10:16:46.704Z,3.80
2019-05-17T10:17:32.471Z,4.00
2019-05-17T10:18:20.012Z,3.50
2019-05-17T10:19:06.318Z,3.33
2019-05-17T10:19:52.046Z,3.23